Time;durP1;ratioP1;P1;durP2;ratioP2;P2;SDS_P1;SDS_P2;PMS_P1;PMS_P2;Temp;Humidity;BMP_temperature;BMP_pressure;BME280_temperature;BME280_humidity;BME280_pressure;Samples;Min_cycle;Max_cycle;Signal;HPM_P1;HPM_P2
2023/04/02 00:01:00;;;;;;;1.00;0.95;;;10.60;99.90;;;;;;5020698;28;20076;-46
2023/04/02 00:03:52;;;;;;;3.83;2.28;;;10.70;99.90;;;;;;5030677;28;20029;-46
2023/04/02 00:06:32;;;;;;;3.45;0.90;;;10.60;99.90;;;;;;5030100;28;20018;-47
2023/04/02 00:09:16;;;;;;;2.72;1.08;;;10.60;99.90;;;;;;5030993;28;20565;-45
2023/04/02 00:11:45;;;;;;;119.55;70.70;;;10.60;99.90;;;;;;5030724;28;20022;-46
2023/04/02 00:14:20;;;;;;;3.55;3.00;;;10.60;99.90;;;;;;5031000;28;20026;-46
2023/04/02 00:16:46;;;;;;;5.90;3.85;;;10.60;99.90;;;;;;5031209;28;20623;-46
2023/04/02 00:19:16;;;;;;;1.70;1.60;;;10.60;99.90;;;;;;5030955;28;20116;-45
2023/04/02 00:21:44;;;;;;;2.13;1.70;;;10.60;99.90;;;;;;5030784;28;20109;-45
2023/04/02 00:24:15;;;;;;;1.85;1.75;;;10.60;99.90;;;;;;5032610;28;20127;-46
2023/04/02 00:26:46;;;;;;;3.05;2.17;;;10.50;99.90;;;;;;5016511;28;20021;-44
2023/04/02 00:29:14;;;;;;;2.33;1.45;;;10.50;99.90;;;;;;5016415;28;20025;-47
2023/04/02 00:31:50;;;;;;;2.30;1.80;;;10.50;99.90;;;;;;5034354;28;20077;-46
2023/04/02 00:34:32;;;;;;;1.87;1.67;;;10.50;99.90;;;;;;5034410;28;20579;-46
2023/04/02 00:36:58;;;;;;;2.20;2.00;;;10.40;99.90;;;;;;5016384;28;20033;-46
2023/04/02 00:39:27;;;;;;;6.68;1.90;;;10.40;99.90;;;;;;5033817;28;20130;-46
2023/04/02 00:42:04;;;;;;;1.83;1.73;;;10.40;99.90;;;;;;5033788;28;20022;-45
2023/04/02 00:44:42;;;;;;;1.98;1.85;;;10.40;99.90;;;;;;5016786;28;20489;-45
2023/04/02 00:47:23;;;;;;;1.63;1.52;;;10.40;99.90;;;;;;5033917;28;20116;-51
2023/04/02 00:50:17;;;;;;;2.17;1.98;;;10.40;99.90;;;;;;5033997;28;20096;-50
2023/04/02 00:52:45;;;;;;;5.57;1.92;;;10.40;99.90;;;;;;5024694;28;20050;-49
2023/04/02 00:55:38;;;;;;;2.88;1.92;;;10.30;99.90;;;;;;5033790;28;20481;-47
2023/04/02 00:58:24;;;;;;;2.00;1.90;;;10.30;99.90;;;;;;5033625;28;20041;-48
2023/04/02 01:00:51;;;;;;;2.40;2.20;;;10.30;99.90;;;;;;5033520;28;20030;-46
2023/04/02 01:03:16;;;;;;;3.75;2.75;;;10.30;99.90;;;;;;5033539;28;20064;-47
2023/04/02 01:05:49;;;;;;;1.90;1.75;;;10.30;99.90;;;;;;5033692;28;20496;-48
2023/04/02 01:08:40;;;;;;;2.47;2.28;;;10.30;99.90;;;;;;5033678;28;20029;-47
2023/04/02 01:11:25;;;;;;;2.13;2.00;;;10.30;99.90;;;;;;5033442;28;20025;-50
2023/04/02 01:14:03;;;;;;;2.60;2.40;;;10.20;99.90;;;;;;5016304;28;20645;-49
2023/04/02 01:16:31;;;;;;;2.08;1.98;;;10.30;99.90;;;;;;5033608;28;20108;-48
2023/04/02 01:19:35;;;;;;;3.28;2.10;;;10.30;99.90;;;;;;5033295;28;20022;-48
2023/04/02 01:22:17;;;;;;;2.10;1.90;;;10.30;99.90;;;;;;5033133;28;20032;-49
2023/04/02 01:24:43;;;;;;;2.42;2.00;;;10.30;99.90;;;;;;5033243;28;20091;-48
2023/04/02 01:27:44;;;;;;;2.50;2.30;;;10.30;99.90;;;;;;5033324;28;20025;-48
2023/04/02 01:30:11;;;;;;;1.92;1.80;;;10.40;99.90;;;;;;5033021;28;20033;-49
2023/04/02 01:32:38;;;;;;;4.40;2.22;;;10.40;99.90;;;;;;5033119;28;20037;-50
2023/04/02 01:35:04;;;;;;;2.38;2.10;;;10.30;99.90;;;;;;5033135;28;20040;-49
2023/04/02 01:37:48;;;;;;;2.08;1.98;;;10.40;99.90;;;;;;5033039;28;20194;-49
2023/04/02 01:40:49;;;;;;;2.33;1.98;;;10.40;99.90;;;;;;5033234;28;20040;-44
2023/04/02 01:43:45;;;;;;;1.90;1.80;;;10.40;99.90;;;;;;5032888;28;20022;-48
2023/04/02 01:46:31;;;;;;;1.90;1.77;;;10.40;99.90;;;;;;5033106;28;20030;-53
2023/04/02 01:49:01;;;;;;;1.63;1.52;;;10.30;99.90;;;;;;5032871;28;20354;-51
2023/04/02 01:51:34;;;;;;;2.15;2.00;;;10.30;99.90;;;;;;5032546;28;20433;-52
2023/04/02 01:54:03;;;;;;;2.63;2.00;;;10.30;99.90;;;;;;5032620;28;20390;-49
2023/04/02 01:56:29;;;;;;;2.35;2.15;;;10.30;99.90;;;;;;5032743;28;20065;-46
2023/04/02 01:58:58;;;;;;;2.88;2.20;;;10.30;99.90;;;;;;5014848;28;20264;-47
2023/04/02 02:01:29;;;;;;;2.10;1.90;;;10.30;99.90;;;;;;5032190;28;20025;-48
2023/04/02 02:03:55;;;;;;;1.90;1.80;;;10.20;99.90;;;;;;5032773;28;20412;-53
2023/04/02 02:06:22;;;;;;;2.05;1.95;;;10.20;99.90;;;;;;5032660;28;20036;-47
2023/04/02 02:09:04;;;;;;;2.17;1.80;;;10.20;99.90;;;;;;5032518;28;20025;-48
2023/04/02 02:11:32;;;;;;;2.65;2.40;;;10.10;99.90;;;;;;5032299;28;20030;-46
2023/04/02 02:14:11;;;;;;;3.90;2.30;;;10.20;99.90;;;;;;5014537;28;20397;-48
2023/04/02 02:16:40;;;;;;;3.78;3.25;;;10.20;99.90;;;;;;5032375;28;20048;-46
2023/04/02 02:19:22;;;;;;;4.95;4.38;;;10.20;99.90;;;;;;5032327;28;20046;-48
2023/04/02 02:21:53;;;;;;;5.32;3.90;;;10.20;99.90;;;;;;5032227;28;20033;-46
2023/04/02 02:24:31;;;;;;;4.90;3.90;;;10.20;99.90;;;;;;5032272;28;20025;-46
2023/04/02 02:27:15;;;;;;;5.75;4.30;;;10.10;99.90;;;;;;5032169;28;20037;-47
2023/04/02 02:29:43;;;;;;;6.78;4.60;;;10.00;99.90;;;;;;5032716;28;20033;-46
2023/04/02 02:32:11;;;;;;;7.65;5.32;;;9.90;99.90;;;;;;5032190;28;20485;-46
2023/04/02 02:34:59;;;;;;;4.88;4.35;;;10.00;99.90;;;;;;5031907;28;20132;-49
2023/04/02 02:37:29;;;;;;;5.30;4.53;;;10.00;99.90;;;;;;5031632;28;20041;-52
2023/04/02 02:39:58;;;;;;;5.57;5.03;;;9.90;99.90;;;;;;5032003;28;20446;-50
2023/04/02 02:42:30;;;;;;;5.95;4.30;;;9.90;99.90;;;;;;5032541;28;20032;-50
2023/04/02 02:44:57;;;;;;;5.30;4.55;;;9.90;99.90;;;;;;5035632;28;20607;-48
2023/04/02 02:47:29;;;;;;;5.85;4.38;;;9.90;99.90;;;;;;5033048;28;20092;-49
2023/04/02 02:50:02;;;;;;;6.30;4.43;;;9.80;99.90;;;;;;5033220;28;20029;-53
2023/04/02 02:52:31;;;;;;;6.25;4.93;;;9.80;99.90;;;;;;5014554;28;20576;-48
2023/04/02 02:55:03;;;;;;;5.57;4.38;;;9.80;99.90;;;;;;5032427;28;20032;-47
2023/04/02 02:57:33;;;;;;;5.38;4.82;;;9.70;99.90;;;;;;5031870;28;20619;-47
2023/04/02 03:00:00;;;;;;;4.93;4.00;;;9.70;99.90;;;;;;5031621;28;20025;-48
2023/04/02 03:02:27;;;;;;;5.50;4.13;;;9.80;99.90;;;;;;5031592;28;20113;-49
2023/04/02 03:04:54;;;;;;;4.10;3.60;;;9.80;99.90;;;;;;5031686;28;20040;-46
2023/04/02 03:07:24;;;;;;;4.63;4.05;;;9.80;99.90;;;;;;5031809;28;20095;-47
2023/04/02 03:10:12;;;;;;;5.93;4.15;;;9.80;99.90;;;;;;5032064;28;20048;-50
2023/04/02 03:12:42;;;;;;;3.67;3.28;;;9.80;99.90;;;;;;5031371;28;20112;-46
2023/04/02 03:15:40;;;;;;;4.95;3.90;;;9.80;99.90;;;;;;5031399;28;20025;-48
2023/04/02 03:18:16;;;;;;;4.78;3.65;;;9.90;99.90;;;;;;5031322;28;20104;-48
2023/04/02 03:21:16;;;;;;;4.43;3.40;;;9.90;99.90;;;;;;5031396;28;20065;-49
2023/04/02 03:23:47;;;;;;;7.93;2.88;;;9.90;99.90;;;;;;5022633;28;20029;-50
2023/04/02 03:26:34;;;;;;;4.40;3.38;;;9.90;99.90;;;;;;5031284;28;20022;-51
2023/04/02 03:29:19;;;;;;;4.45;3.88;;;9.90;99.90;;;;;;5031315;28;20030;-46
2023/04/02 03:31:55;;;;;;;4.13;3.55;;;9.90;99.90;;;;;;5031192;28;20071;-45
2023/04/02 03:34:31;;;;;;;5.40;3.10;;;9.80;99.90;;;;;;5031218;28;20421;-49
2023/04/02 03:37:09;;;;;;;5.80;3.67;;;9.80;99.90;;;;;;5031205;28;20025;-43
2023/04/02 03:39:44;;;;;;;3.72;3.42;;;9.80;99.90;;;;;;5031091;28;20018;-51
2023/04/02 03:42:56;;;;;;;8.27;3.30;;;9.80;99.90;;;;;;5030716;28;20018;-48
2023/04/02 03:45:26;;;;;;;6.22;3.22;;;9.80;99.90;;;;;;5002769;28;20549;-45
2023/04/02 03:48:01;;;;;;;4.88;3.10;;;9.80;99.90;;;;;;5031382;28;20048;-44
2023/04/02 03:51:01;;;;;;;5.70;3.30;;;9.70;99.90;;;;;;5031214;28;20021;-48
2023/04/02 03:53:28;;;;;;;7.18;4.55;;;9.70;99.90;;;;;;5029900;28;20033;-48
2023/04/02 03:55:55;;;;;;;5.70;3.30;;;9.70;99.90;;;;;;5031008;28;20017;-49
2023/04/02 03:58:48;;;;;;;3.58;3.10;;;9.70;99.90;;;;;;5031375;28;20021;-49
2023/04/02 04:01:21;;;;;;;6.32;3.10;;;9.70;99.90;;;;;;5034788;28;20028;-46
2023/04/02 04:03:53;;;;;;;3.25;2.88;;;9.70;99.90;;;;;;5017546;28;20416;-49
2023/04/02 04:06:27;;;;;;;5.18;3.58;;;9.70;99.90;;;;;;5034911;28;20029;-48
2023/04/02 04:09:06;;;;;;;5.32;3.88;;;9.70;99.90;;;;;;5035019;28;20060;-46
2023/04/02 04:11:42;;;;;;;4.88;2.97;;;9.70;99.90;;;;;;5034409;28;20029;-47
2023/04/02 04:14:32;;;;;;;5.15;3.83;;;9.70;99.90;;;;;;5034615;28;20065;-46
2023/04/02 04:17:14;;;;;;;7.53;3.38;;;9.70;99.90;;;;;;5034652;28;20025;-46
2023/04/02 04:19:50;;;;;;;5.70;3.60;;;9.70;99.90;;;;;;5034604;28;20104;-49
2023/04/02 04:22:18;;;;;;;3.95;3.00;;;9.70;99.90;;;;;;5034377;28;20248;-46
2023/04/02 04:24:45;;;;;;;5.85;3.33;;;9.70;99.90;;;;;;5034514;28;20083;-48
2023/04/02 04:27:32;;;;;;;4.05;3.10;;;9.60;99.90;;;;;;5034130;28;20049;-46
2023/04/02 04:30:09;;;;;;;3.92;2.88;;;9.60;99.90;;;;;;5034538;28;20026;-46
2023/04/02 04:32:41;;;;;;;4.05;3.17;;;9.60;99.90;;;;;;5034223;28;20091;-52
2023/04/02 04:35:22;;;;;;;4.18;3.78;;;9.60;99.90;;;;;;5034288;28;20060;-48
2023/04/02 04:37:52;;;;;;;4.78;3.20;;;9.70;99.90;;;;;;5034119;28;20026;-46
2023/04/02 04:40:22;;;;;;;3.72;2.95;;;9.80;99.90;;;;;;5034363;28;20032;-45
2023/04/02 04:42:51;;;;;;;4.40;3.28;;;9.70;99.90;;;;;;5034104;28;20075;-46
2023/04/02 04:45:51;;;;;;;4.85;3.13;;;9.70;99.90;;;;;;5034122;28;20052;-46
2023/04/02 04:48:35;;;;;;;3.35;2.80;;;9.70;99.90;;;;;;5033907;28;20025;-46
2023/04/02 04:51:15;;;;;;;3.45;2.80;;;9.80;99.90;;;;;;5033640;28;20052;-45
2023/04/02 04:53:47;;;;;;;4.20;2.55;;;9.80;99.90;;;;;;5015910;28;20439;-46
2023/04/02 04:56:15;;;;;;;6.57;2.90;;;9.80;99.90;;;;;;5033823;28;20033;-47
2023/04/02 04:58:48;;;;;;;5.35;3.60;;;9.80;99.90;;;;;;5033731;28;20024;-45
2023/04/02 05:01:37;;;;;;;4.32;3.92;;;9.80;99.90;;;;;;5033693;28;20021;-50
2023/04/02 05:04:16;;;;;;;4.53;3.28;;;9.80;99.90;;;;;;5023382;28;20040;-47
2023/04/02 05:06:54;;;;;;;5.43;3.33;;;9.80;99.90;;;;;;5033705;28;20029;-46
2023/04/02 05:09:44;;;;;;;4.13;3.20;;;9.80;99.90;;;;;;5033193;28;20294;-48
2023/04/02 05:12:34;;;;;;;4.97;4.07;;;9.80;99.90;;;;;;5033511;28;20036;-46
2023/04/02 05:15:14;;;;;;;8.27;3.55;;;9.80;99.90;;;;;;5033568;28;20048;-48
2023/04/02 05:17:58;;;;;;;8.25;3.53;;;9.80;99.90;;;;;;5033511;28;20032;-48
2023/04/02 05:20:31;;;;;;;5.20;3.72;;;9.80;99.90;;;;;;5033579;28;20033;-46
2023/04/02 05:23:03;;;;;;;3.92;3.53;;;9.80;99.90;;;;;;5032986;28;20397;-48
2023/04/02 05:25:30;;;;;;;4.43;3.20;;;9.80;99.90;;;;;;5033489;28;20018;-48
2023/04/02 05:28:16;;;;;;;5.75;3.72;;;9.80;99.90;;;;;;5033344;28;20029;-45
2023/04/02 05:30:51;;;;;;;;;;;9.80;99.90;;;;;;5033918;28;20032;-46
2023/04/02 05:33:27;;;;;;;5.22;3.50;;;9.80;99.90;;;;;;5033421;28;20335;-50
2023/04/02 05:35:59;;;;;;;6.28;4.47;;;9.80;99.90;;;;;;5033218;28;20489;-46
2023/04/02 05:38:28;;;;;;;5.75;3.60;;;9.80;99.90;;;;;;5033051;28;20029;-47
2023/04/02 05:41:00;;;;;;;11.02;5.15;;;9.90;99.90;;;;;;5033050;28;20029;-47
2023/04/02 05:43:28;;;;;;;5.75;4.20;;;9.90;99.90;;;;;;5015421;28;20021;-49
2023/04/02 05:45:57;;;;;;;6.97;4.22;;;9.90;99.90;;;;;;5033045;28;20017;-49
2023/04/02 05:48:36;;;;;;;6.07;4.10;;;9.90;99.90;;;;;;5033114;28;20024;-48
2023/04/02 05:51:04;;;;;;;4.47;4.07;;;9.80;99.90;;;;;;5033770;28;20049;-48
2023/04/02 05:53:36;;;;;;;5.13;4.57;;;9.90;99.90;;;;;;5032784;28;20033;-50
2023/04/02 05:56:31;;;;;;;5.97;3.97;;;10.00;99.90;;;;;;5014668;28;20025;-45
2023/04/02 05:59:07;;;;;;;6.00;4.53;;;10.00;99.90;;;;;;5032871;28;20024;-48
2023/04/02 06:01:59;;;;;;;4.60;4.20;;;10.00;99.90;;;;;;5032865;28;20025;-49
2023/04/02 06:04:49;;;;;;;5.75;4.63;;;10.10;99.90;;;;;;5032955;28;20028;-47
2023/04/02 06:07:21;;;;;;;6.05;5.35;;;10.00;99.90;;;;;;5032701;28;20042;-51
2023/04/02 06:10:02;;;;;;;7.80;5.35;;;10.10;99.90;;;;;;5015021;28;20528;-46
2023/04/02 06:12:45;;;;;;;8.98;6.45;;;10.10;99.90;;;;;;5032266;28;20033;-46
2023/04/02 06:15:13;;;;;;;7.72;6.35;;;10.20;99.90;;;;;;5015000;28;20106;-50
2023/04/02 06:18:06;;;;;;;11.25;6.35;;;10.20;99.90;;;;;;5032435;28;20140;-46
2023/04/02 06:20:32;;;;;;;9.40;6.25;;;10.20;99.90;;;;;;5014288;28;20025;-47
2023/04/02 06:23:02;;;;;;;6.85;6.25;;;10.20;99.90;;;;;;5031755;28;20139;-49
2023/04/02 06:25:32;;;;;;;7.88;6.18;;;10.20;99.90;;;;;;5014468;28;20028;-48
2023/04/02 06:28:02;;;;;;;7.10;5.93;;;10.20;99.90;;;;;;5014340;28;20144;-47
2023/04/02 06:30:31;;;;;;;6.28;5.78;;;10.20;99.90;;;;;;5032311;28;20013;-51
2023/04/02 06:32:57;;;;;;;6.50;5.88;;;10.20;99.90;;;;;;5031990;28;20501;-49
2023/04/02 06:35:22;;;;;;;6.60;5.93;;;10.40;99.90;;;;;;5032234;28;20346;-51
2023/04/02 06:37:52;;;;;;;6.72;5.68;;;10.40;99.90;;;;;;5031951;28;20022;-48
2023/04/02 06:40:26;;;;;;;9.07;6.20;;;10.40;99.90;;;;;;5031977;28;20021;-48
2023/04/02 06:42:58;;;;;;;11.32;5.75;;;10.50;99.90;;;;;;5031893;28;20033;-51
2023/04/02 06:45:29;;;;;;;7.03;6.32;;;10.60;99.90;;;;;;5032067;28;20109;-51
2023/04/02 06:47:58;;;;;;;7.03;5.72;;;10.70;99.90;;;;;;5031935;28;20017;-48
2023/04/02 06:50:34;;;;;;;6.70;5.68;;;10.80;99.90;;;;;;5032008;28;20026;-52
2023/04/02 06:53:08;;;;;;;7.05;5.43;;;10.90;99.90;;;;;;5031476;28;20033;-50
2023/04/02 06:55:33;;;;;;;6.18;5.20;;;11.00;99.90;;;;;;5031955;28;20075;-50
2023/04/02 06:57:59;;;;;;;13.23;5.22;;;11.00;99.90;;;;;;5031720;28;20025;-48
2023/04/02 07:00:33;;;;;;;5.95;5.05;;;11.20;99.90;;;;;;5031403;28;20112;-47
2023/04/02 07:03:01;;;;;;;6.63;5.30;;;11.50;99.90;;;;;;5031654;28;20481;-50
2023/04/02 07:05:26;;;;;;;6.97;5.35;;;11.60;99.90;;;;;;5031665;28;20087;-49
2023/04/02 07:07:52;;;;;;;6.20;4.20;;;11.70;99.90;;;;;;5031606;28;20093;-46
2023/04/02 07:10:19;;;;;;;8.52;5.28;;;11.70;99.90;;;;;;5031659;28;20028;-48
2023/04/02 07:12:45;;;;;;;4.85;4.45;;;11.80;99.90;;;;;;5031498;28;20014;-47
2023/04/02 07:15:18;;;;;;;5.80;4.88;;;11.70;99.90;;;;;;5031524;28;20112;-51
2023/04/02 07:17:45;;;;;;;5.78;5.10;;;11.70;99.90;;;;;;5031894;28;20018;-48
2023/04/02 07:20:26;;;;;;;5.88;5.20;;;11.50;99.90;;;;;;5032068;28;20426;-51
2023/04/02 07:22:51;;;;;;;6.18;4.88;;;11.30;99.90;;;;;;5031790;28;20542;-50
2023/04/02 07:25:17;;;;;;;6.60;4.97;;;11.30;99.90;;;;;;5031581;28;20022;-48
2023/04/02 07:27:42;;;;;;;6.50;5.50;;;11.20;99.90;;;;;;5013571;28;20021;-47
2023/04/02 07:30:08;;;;;;;6.28;5.28;;;11.20;99.90;;;;;;5031479;28;20065;-46
2023/04/02 07:32:34;;;;;;;6.00;5.40;;;11.10;99.90;;;;;;5032149;28;20037;-46
2023/04/02 07:35:00;;;;;;;2.70;2.50;;;11.20;99.90;;;;;;5035639;28;20049;-48
2023/04/02 07:37:26;;;;;;;2.40;2.30;;;10.70;99.90;;;;;;5035946;28;20041;-50
2023/04/02 07:39:51;;;;;;;0.75;0.75;;;10.20;99.90;;;;;;5035720;28;20033;-45
2023/04/02 07:42:17;;;;;;;1.40;0.75;;;9.70;99.90;;;;;;5035819;28;20029;-45
2023/04/02 07:44:42;;;;;;;0.57;0.57;;;9.40;99.90;;;;;;5035881;28;20024;-48
2023/04/02 07:47:09;;;;;;;0.75;0.50;;;9.20;99.90;;;;;;5035933;28;20049;-50
2023/04/02 07:49:34;;;;;;;0.75;0.75;;;9.00;99.90;;;;;;5035926;28;20021;-49
2023/04/02 07:52:00;;;;;;;1.30;0.90;;;8.70;99.90;;;;;;5035254;28;20084;-52
2023/04/02 07:54:26;;;;;;;0.70;0.70;;;8.50;99.90;;;;;;5035728;28;20045;-46
2023/04/02 07:56:51;;;;;;;1.10;1.00;;;8.40;99.90;;;;;;5035698;28;20041;-46
2023/04/02 07:59:17;;;;;;;1.02;0.95;;;8.50;99.90;;;;;;5035250;28;20504;-48
2023/04/02 08:01:42;;;;;;;0.68;0.68;;;8.50;99.90;;;;;;5035133;28;20033;-52
2023/04/02 08:04:17;;;;;;;0.80;0.80;;;8.40;99.90;;;;;;5034937;28;20025;-51
2023/04/02 08:06:42;;;;;;;0.90;0.90;;;8.40;99.90;;;;;;5035321;28;20056;-49
2023/04/02 08:09:08;;;;;;;1.27;0.98;;;8.30;99.90;;;;;;5034997;28;20488;-47
2023/04/02 08:11:33;;;;;;;0.70;0.70;;;8.20;99.90;;;;;;5034830;28;20037;-44
2023/04/02 08:13:59;;;;;;;0.82;0.82;;;8.10;99.90;;;;;;5034921;28;20072;-49
2023/04/02 08:16:25;;;;;;;0.70;0.70;;;8.20;99.90;;;;;;5035034;28;20043;-48
2023/04/02 08:18:50;;;;;;;0.70;0.70;;;8.10;99.90;;;;;;5034905;28;20099;-48
2023/04/02 08:21:16;;;;;;;3.40;0.50;;;8.10;99.90;;;;;;5034692;28;20021;-47
2023/04/02 08:23:42;;;;;;;1.60;0.77;;;8.00;99.90;;;;;;5034726;28;20024;-47
2023/04/02 08:26:08;;;;;;;1.05;1.05;;;7.90;99.90;;;;;;5034749;28;20018;-47
2023/04/02 08:28:34;;;;;;;1.25;1.10;;;8.00;99.90;;;;;;5034530;28;20040;-50
2023/04/02 08:31:00;;;;;;;1.50;0.75;;;7.90;99.90;;;;;;5034490;28;20030;-48
2023/04/02 08:33:26;;;;;;;0.93;0.93;;;7.80;99.90;;;;;;5034340;28;20100;-51
2023/04/02 08:35:52;;;;;;;0.95;0.95;;;7.90;99.90;;;;;;5034479;28;20109;-49
2023/04/02 08:38:20;;;;;;;0.85;0.85;;;7.80;99.90;;;;;;5033854;28;20032;-46
2023/04/02 08:40:51;;;;;;;0.98;0.98;;;7.80;99.90;;;;;;5033707;28;20068;-51
2023/04/02 08:43:39;;;;;;;0.75;0.75;;;7.80;99.90;;;;;;5030761;28;20550;-50
2023/04/02 08:46:36;;;;;;;0.70;0.70;;;7.70;99.90;;;;;;5032627;28;20026;-46
2023/04/02 08:49:10;;;;;;;1.20;1.20;;;7.60;99.90;;;;;;5018355;28;20038;-49
2023/04/02 08:51:36;;;;;;;1.30;0.75;;;7.60;99.90;;;;;;5033826;28;20025;-50
2023/04/02 08:54:19;;;;;;;0.90;0.90;;;7.60;99.90;;;;;;5032593;28;20036;-49
2023/04/02 08:57:00;;;;;;;1.13;1.10;;;7.60;99.90;;;;;;5014525;28;20436;-46
2023/04/02 08:59:38;;;;;;;0.93;0.77;;;7.60;99.90;;;;;;5033908;28;20112;-49
2023/04/02 09:02:34;;;;;;;0.73;0.73;;;7.60;99.90;;;;;;5033802;28;20022;-49
2023/04/02 09:05:03;;;;;;;1.20;0.90;;;7.70;99.90;;;;;;5033924;28;20044;-49
2023/04/02 09:07:31;;;;;;;0.80;0.80;;;7.90;99.90;;;;;;5033454;28;20355;-51
2023/04/02 09:09:57;;;;;;;0.80;0.80;;;8.00;99.90;;;;;;5034159;28;20025;-52
2023/04/02 09:12:26;;;;;;;5.78;1.00;;;8.00;99.90;;;;;;5032739;28;20113;-53
2023/04/02 09:15:17;;;;;;;0.70;0.70;;;7.80;99.90;;;;;;5014689;28;20116;-54
2023/04/02 09:17:43;;;;;;;0.85;0.82;;;7.90;99.90;;;;;;5024879;28;20100;-47
2023/04/02 09:20:22;;;;;;;2.20;0.88;;;7.70;99.90;;;;;;5034615;28;20433;-52
2023/04/02 09:22:50;;;;;;;0.70;0.70;;;7.70;99.90;;;;;;5033997;28;20024;-55
2023/04/02 09:25:28;;;;;;;1.80;1.00;;;7.80;99.90;;;;;;5033998;28;20029;-48
2023/04/02 09:27:56;;;;;;;0.80;0.80;;;7.90;99.90;;;;;;5033840;28;20028;-52
2023/04/02 09:30:31;;;;;;;1.20;1.10;;;8.00;99.90;;;;;;5040821;28;20036;-46
2023/04/02 09:33:06;;;;;;;2.25;1.05;;;7.90;99.90;;;;;;5036973;28;20031;-48
2023/04/02 09:35:33;;;;;;;1.00;0.85;;;7.80;99.90;;;;;;5037268;28;20376;-48
2023/04/02 09:38:16;;;;;;;0.80;0.80;;;7.90;99.90;;;;;;5053142;28;20028;-50
2023/04/02 09:40:50;;;;;;;1.50;1.40;;;8.00;99.90;;;;;;5053248;28;20417;-50
2023/04/02 09:43:21;;;;;;;0.90;0.90;;;8.00;99.90;;;;;;5053083;28;20400;-49
2023/04/02 09:46:23;;;;;;;1.10;1.00;;;7.80;99.90;;;;;;5053107;28;20017;-53
2023/04/02 09:48:54;;;;;;;1.02;1.02;;;7.80;99.90;;;;;;5036578;28;20400;-51
2023/04/02 09:51:34;;;;;;;3.33;1.00;;;7.90;99.90;;;;;;5032730;28;20031;-48
2023/04/02 09:54:02;;;;;;;1.23;1.13;;;7.90;99.90;;;;;;5032982;28;20024;-47
2023/04/02 09:56:29;;;;;;;1.30;1.20;;;7.90;99.90;;;;;;5031526;28;20108;-47
2023/04/02 09:59:16;;;;;;;1.50;1.40;;;8.10;99.90;;;;;;5032692;28;20030;-48
2023/04/02 10:01:55;;;;;;;2.00;1.60;;;7.90;99.90;;;;;;5032621;28;20017;-51
2023/04/02 10:04:46;;;;;;;1.65;1.30;;;7.80;99.90;;;;;;5015909;28;20025;-55
2023/04/02 10:07:38;;;;;;;1.27;1.27;;;7.80;99.90;;;;;;5012915;28;20026;-46
2023/04/02 10:10:16;;;;;;;2.05;1.77;;;7.80;99.90;;;;;;5024925;28;20033;-49
2023/04/02 10:12:47;;;;;;;1.15;1.13;;;7.90;99.90;;;;;;5032572;28;20033;-54
2023/04/02 10:15:21;;;;;;;1.13;1.13;;;7.80;99.90;;;;;;5032197;28;20064;-48
2023/04/02 10:18:01;;;;;;;3.53;1.20;;;7.80;99.90;;;;;;5020485;28;20056;-48
2023/04/02 10:20:29;;;;;;;1.30;1.20;;;7.90;99.90;;;;;;5029708;28;20457;-49
2023/04/02 10:22:55;;;;;;;1.60;1.50;;;7.90;99.90;;;;;;5014267;28;20528;-51
2023/04/02 10:25:26;;;;;;;2.20;1.10;;;7.90;99.90;;;;;;5032262;28;20100;-46
2023/04/02 10:28:17;;;;;;;0.90;0.90;;;8.00;99.90;;;;;;5032134;28;20550;-53
2023/04/02 10:31:16;;;;;;;1.85;0.93;;;8.00;99.90;;;;;;5030670;28;20041;-50
2023/04/02 10:33:49;;;;;;;2.70;1.25;;;8.10;99.90;;;;;;5028724;28;20033;-50
2023/04/02 10:36:47;;;;;;;1.23;1.23;;;8.20;99.90;;;;;;5029924;28;20033;-50
2023/04/02 10:39:24;;;;;;;1.25;1.20;;;8.30;99.90;;;;;;5029275;28;20021;-53
2023/04/02 10:42:17;;;;;;;1.30;1.20;;;8.20;99.90;;;;;;5030708;28;20029;-50
2023/04/02 10:45:02;;;;;;;4.10;1.92;;;8.20;99.90;;;;;;5012147;28;20029;-57
2023/04/02 10:47:39;;;;;;;1.20;1.20;;;8.10;99.90;;;;;;5031267;28;20025;-48
2023/04/02 10:50:44;;;;;;;1.40;1.30;;;8.10;99.90;;;;;;5030933;28;20056;-48
2023/04/02 10:53:19;;;;;;;1.40;1.40;;;8.20;99.90;;;;;;5031777;28;20041;-49
2023/04/02 10:55:57;;;;;;;1.58;1.48;;;8.30;99.90;;;;;;5031535;28;20025;-55
2023/04/02 10:58:29;;;;;;;1.48;1.38;;;8.30;99.90;;;;;;5021490;28;20412;-48
2023/04/02 11:01:01;;;;;;;1.40;1.30;;;8.40;99.90;;;;;;5031642;28;20032;-53
2023/04/02 11:03:42;;;;;;;2.20;1.15;;;8.40;99.90;;;;;;5008867;28;20417;-51
2023/04/02 11:06:19;;;;;;;1.00;1.00;;;8.40;99.90;;;;;;5012210;28;20021;-62
2023/04/02 11:08:50;;;;;;;0.95;0.95;;;8.50;99.90;;;;;;5029117;28;20036;-49
2023/04/02 11:11:23;;;;;;;0.93;0.93;;;8.60;99.90;;;;;;5031141;28;20052;-51
2023/04/02 11:14:10;;;;;;;0.90;0.80;;;8.70;99.90;;;;;;5026010;28;20057;-47
2023/04/02 11:16:36;;;;;;;1.02;0.93;;;8.70;99.90;;;;;;5031848;28;20030;-49
2023/04/02 11:19:29;;;;;;;1.55;1.00;;;8.60;99.90;;;;;;5030863;28;20444;-49
2023/04/02 11:22:02;;;;;;;2.53;0.77;;;8.50;99.90;;;;;;5030365;28;20465;-54
2023/04/02 11:24:31;;;;;;;1.10;1.10;;;8.60;99.90;;;;;;5027801;28;20037;-50
2023/04/02 11:27:03;;;;;;;0.80;0.80;;;8.60;99.90;;;;;;5033630;28;20025;-50
2023/04/02 11:29:30;;;;;;;0.90;0.90;;;8.60;99.90;;;;;;5017010;28;20056;-58
2023/04/02 11:32:14;;;;;;;1.25;1.25;;;8.50;99.90;;;;;;5027268;28;20021;-54
2023/04/02 11:34:39;;;;;;;0.88;0.88;;;8.40;99.90;;;;;;5017707;28;20500;-51
2023/04/02 11:37:28;;;;;;;1.98;1.02;;;8.40;99.90;;;;;;5032142;28;20041;-50
2023/04/02 11:39:56;;;;;;;1.10;0.98;;;8.50;99.90;;;;;;5037697;28;20030;-50
2023/04/02 11:42:26;;;;;;;1.42;1.40;;;8.60;99.90;;;;;;5033878;28;20026;-48
2023/04/02 11:44:57;;;;;;;2.17;1.40;;;8.40;99.90;;;;;;5033010;28;20022;-46
2023/04/02 11:47:25;;;;;;;0.95;0.95;;;8.40;99.90;;;;;;5030776;28;20512;-49
2023/04/02 11:49:53;;;;;;;1.45;1.20;;;8.40;99.90;;;;;;5030351;28;20041;-45
2023/04/02 11:52:33;;;;;;;1.20;1.10;;;8.40;99.90;;;;;;5031056;28;20041;-53
2023/04/02 11:55:18;;;;;;;1.48;1.38;;;8.20;99.90;;;;;;5030576;28;20088;-52
2023/04/02 11:57:44;;;;;;;1.92;1.55;;;8.30;99.90;;;;;;5030205;28;20095;-46
2023/04/02 12:00:27;;;;;;;3.22;1.35;;;8.30;99.90;;;;;;5030232;28;20037;-52
2023/04/02 12:03:33;;;;;;;1.85;1.17;;;8.20;99.90;;;;;;5012679;28;20022;-49
2023/04/02 12:06:24;;;;;;;1.10;1.10;;;8.30;99.90;;;;;;5016194;28;20350;-51
2023/04/02 12:09:03;;;;;;;1.30;1.20;;;8.30;99.90;;;;;;5030211;28;20025;-52
2023/04/02 12:11:34;;;;;;;1.20;1.20;;;8.20;99.90;;;;;;5022789;28;20033;-48
2023/04/02 12:14:01;;;;;;;1.70;1.60;;;8.30;99.90;;;;;;5011132;28;20022;-56
2023/04/02 12:16:33;;;;;;;1.00;1.00;;;8.40;99.90;;;;;;5022239;28;20036;-50
2023/04/02 12:19:00;;;;;;;18.33;10.15;;;8.50;99.90;;;;;;5029816;28;20436;-54
2023/04/02 12:21:27;;;;;;;14.20;7.10;;;8.40;99.90;;;;;;5014868;28;20479;-47
2023/04/02 12:23:58;;;;;;;1.60;1.50;;;8.50;99.90;;;;;;5021058;28;20020;-47
2023/04/02 12:26:29;;;;;;;1.70;1.60;;;8.50;99.90;;;;;;5034679;28;20017;-49
2023/04/02 12:29:13;;;;;;;1.83;1.73;;;8.40;99.90;;;;;;5034337;28;20086;-53
2023/04/02 12:31:46;;;;;;;1.63;1.52;;;8.30;99.90;;;;;;5033840;28;20033;-51
2023/04/02 12:34:20;;;;;;;1.90;1.52;;;8.20;99.90;;;;;;5033068;28;20079;-48
2023/04/02 12:37:03;;;;;;;3.10;1.70;;;8.20;99.90;;;;;;5024619;28;20044;-48
2023/04/02 12:39:31;;;;;;;1.60;1.50;;;8.10;99.90;;;;;;5025089;28;20036;-51
2023/04/02 12:41:57;;;;;;;1.90;1.80;;;8.00;99.90;;;;;;5033969;28;20408;-54
2023/04/02 12:44:26;;;;;;;1.80;1.70;;;8.00;99.90;;;;;;5053605;28;20022;-50
2023/04/02 12:46:52;;;;;;;3.03;2.00;;;8.00;99.90;;;;;;5036856;28;20377;-52
2023/04/02 12:49:27;;;;;;;2.58;1.65;;;8.10;99.90;;;;;;5034347;28;20030;-48
2023/04/02 12:51:53;;;;;;;2.10;2.00;;;8.10;99.90;;;;;;5033899;28;20037;-47
2023/04/02 12:54:19;;;;;;;1.55;1.45;;;8.20;99.90;;;;;;5034419;28;20029;-46
2023/04/02 12:56:46;;;;;;;1.83;1.73;;;8.20;99.90;;;;;;5028635;28;20030;-48
2023/04/02 12:59:35;;;;;;;2.67;1.73;;;8.20;99.90;;;;;;5014535;28;20030;-50
2023/04/02 13:02:13;;;;;;;2.00;1.80;;;8.20;99.90;;;;;;5027167;28;20070;-53
2023/04/02 13:05:00;;;;;;;1.63;1.52;;;8.20;99.90;;;;;;5033783;28;20024;-53
2023/04/02 13:07:31;;;;;;;2.20;1.95;;;8.20;99.90;;;;;;5024792;28;20018;-50
2023/04/02 13:09:59;;;;;;;3.95;1.55;;;8.20;99.90;;;;;;5032774;28;20104;-52
2023/04/02 13:12:31;;;;;;;2.30;2.10;;;8.30;99.90;;;;;;5032936;28;20055;-51
2023/04/02 13:14:59;;;;;;;2.00;1.90;;;8.40;99.90;;;;;;5023803;28;20026;-51
2023/04/02 13:17:38;;;;;;;2.17;2.08;;;8.30;99.90;;;;;;5007216;28;20041;-50
2023/04/02 13:20:26;;;;;;;2.20;1.95;;;8.20;99.90;;;;;;5013557;28;20026;-50
2023/04/02 13:22:51;;;;;;;2.38;2.17;;;8.10;99.90;;;;;;5023496;28;20355;-50
2023/04/02 13:25:17;;;;;;;2.65;2.47;;;8.10;99.90;;;;;;4995647;28;20029;-54
2023/04/02 13:27:43;;;;;;;1.90;1.80;;;8.10;99.90;;;;;;5027802;28;20017;-48
2023/04/02 13:30:16;;;;;;;2.28;2.15;;;8.00;99.90;;;;;;5047924;28;20371;-49
2023/04/02 13:32:41;;;;;;;2.10;2.00;;;7.80;99.90;;;;;;5033557;28;20033;-49